Charlevoix, MI

9:28 AM EST on December 17, 2017 (GMT -0500)
Charlevoix Municipal

Weather History for KCVX - September, 2012

Change the Weather History Date:

Thursday, September 13, 2012

  Actual Average Record
Temperature  
Mean Temperature 61 °F -  
Max Temperature 68 °F 71 °F 84 °F (2004)
Min Temperature 54 °F 57 °F 41 °F (2014)
Degree Days  
Heating Degree Days 4    
Growing Degree Days 11 (Base 50)    
Moisture  
Dew Point 51 °F    
Average Humidity 70    
Maximum Humidity 96    
Minimum Humidity 46    
Precipitation  
Precipitation 0.00 in - - ()
Sea Level Pressure  
Sea Level Pressure 30.25 in    
Wind  
Wind Speed 7 mph (NNW)    
Max Wind Speed 12 mph    
Max Gust Speed 16 mph    
Visibility 10 miles    
Events Rain    
Averages and records for this station are not official NWS values.
T = Trace of Precipitation, MM = Missing Value Source: NWS Daily Summary

Daily Weather History Graph

Daily Weather History Graph

Search for Another Location

Airport or City:

Trip Planner

Search our weather history database for the weather conditions in past years. The results will help you decide how hot, cold, wet, or windy it might be!

Date:

Astronomy

Sep. 13, 2012 Rise Set
Actual Time 7:17 AM EDT 7:54 PM EDT
Civil Twilight 6:48 AM EDT 8:24 PM EDT
Nautical Twilight 6:12 AM EDT 8:59 PM EDT
Astronomical Twilight 5:36 AM EDT 9:36 PM EDT
Moon 4:30 AM EDT (9/13) 6:21 PM EDT (9/13)
Length of Visible Light 13h 36m
Length of Day
12h 37m
Waning Crescent, 7% of the Moon is Illuminated
Sep 13
Waning Crescent
Sep 15
New
Sep 22
First Quarter
Sep 29
Full
Oct 8
Last Quarter

Hourly Weather History & Observations

Time (EDT) Temp. Dew Point Humidity Pressure Visibility Wind Dir Wind Speed Gust Speed Precip Events Conditions
12:14 AM 68.0 °F 54.3 °F 62% 30.19 in 10.0 mi North 4.6 mph - N/A   Scattered Clouds
12:34 AM 68.4 °F 46.9 °F 46% 30.19 in 10.0 mi North 8.1 mph - N/A   Clear
12:54 AM 67.5 °F 45.9 °F 46% 30.19 in 10.0 mi North 9.2 mph - N/A   Clear
1:14 AM 67.3 °F 47.8 °F 50% 30.19 in 10.0 mi North 9.2 mph - N/A   Clear
1:34 AM 66.6 °F 48.6 °F 52% 30.19 in 10.0 mi North 11.5 mph - N/A   Clear
1:54 AM 66.0 °F 50.4 °F 57% 30.20 in 10.0 mi North 10.4 mph - N/A   Clear
2:14 AM 65.3 °F 50.9 °F 60% 30.20 in 10.0 mi North 10.4 mph 16.1 mph N/A   Clear
2:34 AM 64.2 °F 51.1 °F 62% 30.19 in 10.0 mi North 11.5 mph 16.1 mph N/A   Scattered Clouds
2:55 AM 63.3 °F 51.4 °F 65% 30.20 in 10.0 mi North 11.5 mph - N/A   Scattered Clouds
3:14 AM 62.1 °F 52.0 °F 70% 30.19 in 10.0 mi North 8.1 mph - N/A   Clear
3:34 AM 61.3 °F 52.5 °F 73% 30.19 in 10.0 mi NNE 6.9 mph - N/A Rain Light Rain
3:54 AM 61.3 °F 53.6 °F 76% 30.19 in 10.0 mi NNE 5.8 mph - N/A   Clear
4:35 AM 62.6 °F 53.6 °F 72% 30.20 in 10.0 mi North 5.8 mph - N/A   Overcast
4:54 AM 62.8 °F 53.6 °F 72% 30.20 in 10.0 mi North 5.8 mph - N/A   Overcast
5:14 AM 63.0 °F 53.6 °F 71% 30.20 in 10.0 mi North 6.9 mph - N/A   Overcast
5:34 AM 63.5 °F 54.7 °F 73% 30.21 in 10.0 mi North 3.5 mph - N/A   Overcast
5:54 AM 63.9 °F 55.9 °F 75% 30.21 in 10.0 mi NNW 4.6 mph - N/A   Overcast
6:14 AM 63.5 °F 49.1 °F 59% 30.21 in 10.0 mi NNW 9.2 mph - N/A   Overcast
6:34 AM 61.9 °F 49.1 °F 63% 30.21 in 10.0 mi North 10.4 mph - N/A   Overcast
6:54 AM 62.1 °F 47.3 °F 58% 30.22 in 10.0 mi NNW 9.2 mph - N/A   Mostly Cloudy
7:14 AM 61.9 °F 48.2 °F 61% 30.23 in 10.0 mi NNW 8.1 mph - N/A   Overcast
7:34 AM 62.6 °F 48.7 °F 60% 30.24 in 10.0 mi NNW 11.5 mph 16.1 mph N/A   Overcast
7:54 AM 62.6 °F 48.4 °F 60% 30.24 in 10.0 mi NNW 9.2 mph - N/A Rain Light Rain
8:14 AM 62.6 °F 47.3 °F 57% 30.25 in 10.0 mi NNW 8.1 mph - N/A   Overcast
8:34 AM 62.6 °F 48.0 °F 59% 30.24 in 10.0 mi North 8.1 mph - N/A   Mostly Cloudy
8:54 AM 62.6 °F 48.7 °F 60% 30.25 in 10.0 mi NNW 8.1 mph - N/A   Mostly Cloudy
9:14 AM 62.8 °F 48.6 °F 60% 30.25 in 10.0 mi NNW 9.2 mph - N/A   Overcast
9:34 AM 61.9 °F 47.8 °F 60% 30.26 in 10.0 mi NNW 10.4 mph - N/A   Overcast
9:54 AM 61.7 °F 47.1 °F 59% 30.27 in 10.0 mi NNW 9.2 mph - N/A   Overcast
10:14 AM 61.9 °F 46.4 °F 57% 30.27 in 10.0 mi North 8.1 mph - N/A   Overcast
10:34 AM 62.4 °F 48.7 °F 61% 30.27 in 10.0 mi NW 11.5 mph - N/A   Overcast
10:54 AM 61.7 °F 48.2 °F 61% 30.27 in 10.0 mi NNW 8.1 mph - N/A   Overcast
11:14 AM 61.5 °F 48.6 °F 62% 30.28 in 10.0 mi NW 5.8 mph - N/A   Overcast
11:34 AM 60.8 °F 50.7 °F 69% 30.28 in 10.0 mi North 5.8 mph - N/A   Overcast
11:54 AM 60.8 °F 50.9 °F 70% 30.28 in 10.0 mi NNW 5.8 mph - N/A   Overcast
12:14 PM 61.2 °F 51.3 °F 70% 30.28 in 10.0 mi NNE 5.8 mph - N/A   Overcast
12:34 PM 61.3 °F 51.3 °F 69% 30.27 in 10.0 mi ENE 3.5 mph - N/A   Overcast
12:54 PM 61.7 °F 51.4 °F 69% 30.28 in 10.0 mi Calm Calm - N/A   Overcast
1:14 PM 61.7 °F 51.3 °F 69% 30.28 in 10.0 mi Calm Calm - N/A   Overcast
1:34 PM 61.7 °F 52.0 °F 70% 30.28 in 10.0 mi West 5.8 mph - N/A   Overcast
1:54 PM 61.9 °F 48.9 °F 62% 30.29 in 10.0 mi West 9.2 mph - N/A   Overcast
2:15 PM 61.9 °F 48.6 °F 62% 30.29 in 10.0 mi WNW 4.6 mph - N/A   Overcast
2:34 PM 61.9 °F 49.3 °F 63% 30.28 in 10.0 mi West 3.5 mph - N/A   Overcast
2:54 PM 62.4 °F 49.6 °F 63% 30.28 in 10.0 mi West 4.6 mph - N/A Rain Light Rain
3:15 PM 63.0 °F 47.5 °F 57% 30.27 in 10.0 mi West 8.1 mph - N/A   Overcast
3:34 PM 63.1 °F 47.1 °F 56% 30.27 in 10.0 mi WNW 6.9 mph - N/A   Overcast
3:54 PM 62.6 °F 46.6 °F 56% 30.27 in 10.0 mi NW 6.9 mph - N/A   Overcast
4:14 PM 61.0 °F 51.4 °F 71% 30.28 in 10.0 mi WNW 9.2 mph - N/A   Overcast
4:34 PM 60.8 °F 51.6 °F 72% 30.28 in 10.0 mi NW 6.9 mph - N/A   Overcast
4:54 PM 60.4 °F 52.9 °F 76% 30.28 in 10.0 mi WNW 4.6 mph - N/A Rain Light Rain
5:14 PM 60.4 °F 52.2 °F 74% 30.28 in 10.0 mi Calm Calm - N/A Rain Light Rain
5:34 PM 59.9 °F 53.2 °F 79% 30.28 in 10.0 mi Calm Calm - N/A Rain Light Rain
5:54 PM 59.4 °F 54.1 °F 83% 30.28 in 10.0 mi Calm Calm - N/A   Overcast
6:14 PM 59.9 °F 54.1 °F 81% 30.28 in 10.0 mi Calm Calm - N/A   Mostly Cloudy
6:34 PM 59.9 °F 54.0 °F 81% 30.28 in 10.0 mi South 3.5 mph - N/A   Mostly Cloudy
6:55 PM 59.4 °F 53.8 °F 82% 30.28 in 10.0 mi SSE 3.5 mph - N/A   Mostly Cloudy
7:14 PM 59.2 °F 54.1 °F 83% 30.28 in 10.0 mi Calm Calm - N/A   Overcast
7:34 PM 59.0 °F 54.5 °F 85% 30.28 in 10.0 mi Calm Calm - N/A   Overcast
7:55 PM 58.1 °F 54.9 °F 89% 30.29 in 10.0 mi South 3.5 mph - N/A   Scattered Clouds
8:14 PM 57.7 °F 54.9 °F 90% 30.29 in 10.0 mi South 3.5 mph - N/A   Clear
8:34 PM 57.6 °F 54.5 °F 90% 30.29 in 10.0 mi South 3.5 mph - N/A   Clear
8:54 PM 57.4 °F 53.8 °F 88% 30.29 in 10.0 mi Calm Calm - N/A   Scattered Clouds
9:14 PM 57.2 °F 53.2 °F 87% 30.29 in 10.0 mi Calm Calm - N/A   Scattered Clouds
9:34 PM 56.5 °F 52.7 °F 87% 30.29 in 10.0 mi South 3.5 mph - N/A   Clear
9:54 PM 56.3 °F 53.1 °F 89% 30.29 in 10.0 mi SE 3.5 mph - N/A   Scattered Clouds
10:14 PM 56.5 °F 54.5 °F 93% 30.28 in 10.0 mi SE 4.6 mph - N/A   Scattered Clouds
10:34 PM 55.9 °F 54.5 °F 95% 30.28 in 10.0 mi SSE 3.5 mph - N/A   Scattered Clouds
10:54 PM 55.4 °F 54.0 °F 95% 30.29 in 10.0 mi SE 3.5 mph - N/A   Scattered Clouds
11:14 PM 55.0 °F 53.8 °F 96% 30.29 in 10.0 mi SSE 4.6 mph - N/A   Scattered Clouds
11:34 PM 54.9 °F 53.6 °F 96% 30.30 in 10.0 mi SE 3.5 mph - N/A   Scattered Clouds
11:54 PM 54.5 °F 53.1 °F 95% 30.30 in 10.0 mi South 5.8 mph - N/A   Mostly Cloudy